sim
Sign-in with your pilot id or email,
or register
Callsign
Passwort

Schedule Details

Flight Number: OEO4629
Departure: Manchester Airport (EGCC) at 10:05
Arrival: Munich Airport (EDDM) at 12:05

Weather Information
Getting current METAR information for EGCC 220050Z AUTO VRB01KT 6000 NCD 10/09 Q1013
Getting current METAR information for EDDM 220050Z VRB01KT 5000 1200N R08L/0800D R08R/P2000N BCFG NSC 08/08 Q1015 TEMPO 2500

Schedule Frequency

Route Map